Main page
METAR-TAF:

METAR-TAF

Airports :

Norwich Airport

Norwich, England

latitude: 52-38N, longitude: 001-18E, elevation: 14 m

Current weather observation

The report was made 40 minutes ago, at 22:50 UTC
Wind 5 kt from the Southwest
Temperature 8°C
Humidity 87%
Pressure 1027 hPa
Visibility 10 km or more

METAR: EGSH 222250Z AUTO 22005KT 9999 SCT033/// 08/06 Q1027

Time: 23:30 (23:30 UTC)

Forecast

The report was made 3 hours and 24 minutes ago, at 20:06 UTC
Forecast valid from 22 at 21 UTC to 22 at 24 UTC
Wind 10 kt from the West/Southwest
Visibility 10 km or more
Broken clouds at a height of 3000 ft

TAF: EGSH 222006Z 2221/2224 24010KT 9999 BKN030

Weather observations and forecasts of more than 4000 airports (METAR and TAF reports).

The available stations are represented by yellow and red dots on the map.

Hover mouse over dot to see the name of the station.

Then click to see weather observations and forecasts.

To change the map : click on the green buttons with a black cross to zoom in, on the green button with a dash to zoom out, or on the green arrows for adjacent maps.


METAR-TAF: